Time;durP1;ratioP1;P1;durP2;ratioP2;P2;SDS_P1;SDS_P2;PMS_P1;PMS_P2;Temp;Humidity;BMP_temperature;BMP_pressure;BME280_temperature;BME280_humidity;BME280_pressure;Samples;Min_cycle;Max_cycle;Signal;HPM_P1;HPM_P2
2021/05/30 00:00:27;;;;;;;1.85;1.75;;;;;;;18.80;60.92;100774.25;5056111;28;20103;-72
2021/05/30 00:02:54;;;;;;;3.67;1.92;;;;;;;18.84;61.04;100765.97;5056128;28;20072;-72
2021/05/30 00:05:20;;;;;;;5.35;2.42;;;;;;;18.87;61.07;100769.34;5056101;28;20112;-72
2021/05/30 00:07:47;;;;;;;1.50;1.40;;;;;;;18.81;61.09;100766.22;5056099;28;20120;-72
2021/05/30 00:10:15;;;;;;;1.80;1.70;;;;;;;18.82;61.06;100773.19;5055798;28;20051;-72
2021/05/30 00:12:46;;;;;;;1.67;1.52;;;;;;;18.77;61.63;100775.31;5055758;28;20452;-72
2021/05/30 00:15:13;;;;;;;2.00;1.70;;;;;;;18.80;61.55;100775.09;5055963;28;20048;-72
2021/05/30 00:17:41;;;;;;;1.50;1.40;;;;;;;18.80;60.64;100776.88;5052179;28;20496;-72
2021/05/30 00:20:10;;;;;;;1.98;1.80;;;;;;;18.69;61.80;100769.78;5049389;28;20144;-72
2021/05/30 00:22:38;;;;;;;1.77;1.67;;;;;;;18.76;61.94;100768.38;5049145;28;20059;-72
2021/05/30 00:25:06;;;;;;;2.03;1.33;;;;;;;18.76;62.41;100765.72;5049317;28;20049;-72
2021/05/30 00:27:33;;;;;;;1.65;1.55;;;;;;;18.70;61.96;100758.28;5048977;28;20071;-72
2021/05/30 00:30:02;;;;;;;1.05;1.05;;;;;;;18.65;61.21;100760.38;5049240;28;20033;-72
2021/05/30 00:32:29;;;;;;;1.30;1.08;;;;;;;18.70;61.60;100754.78;5048866;28;20037;-72
2021/05/30 00:34:56;;;;;;;1.42;1.33;;;;;;;18.58;62.39;100749.44;5049570;28;20041;-70
2021/05/30 00:37:23;;;;;;;3.88;1.33;;;;;;;18.63;61.24;100743.81;5032513;28;20059;-71
2021/05/30 00:39:50;;;;;;;1.30;1.20;;;;;;;18.63;61.25;100740.31;5049420;28;20056;-71
2021/05/30 00:42:17;;;;;;;1.42;1.13;;;;;;;18.67;60.47;100742.63;5048718;28;20472;-71
2021/05/30 00:44:44;;;;;;;1.23;1.13;;;;;;;18.60;60.75;100736.13;5048612;28;20115;-70
2021/05/30 00:47:11;;;;;;;1.38;1.27;;;;;;;18.62;59.79;100730.72;5050996;28;20033;-70
2021/05/30 00:49:38;;;;;;;1.35;1.13;;;;;;;18.63;59.32;100746.44;5048943;28;20047;-70
2021/05/30 00:52:06;;;;;;;1.70;1.35;;;;;;;18.74;59.15;100753.56;5049074;28;20044;-71
2021/05/30 00:54:37;;;;;;;1.30;1.20;;;;;;;18.57;61.03;100758.31;5046990;28;20041;-70
2021/05/30 00:57:06;;;;;;;2.13;1.92;;;;;;;18.16;61.27;100784.28;5048003;28;20179;-70
2021/05/30 00:59:34;;;;;;;2.90;2.70;;;;;;;17.90;62.35;100789.69;5048637;28;20091;-70
2021/05/30 01:02:01;;;;;;;3.85;2.65;;;;;;;17.78;63.20;100801.94;5048658;28;20041;-70
2021/05/30 01:04:29;;;;;;;4.18;3.78;;;;;;;17.96;63.18;100802.44;5048609;28;20124;-70
2021/05/30 01:06:58;;;;;;;6.57;4.93;;;;;;;17.93;63.17;100802.63;5048407;28;20047;-70
2021/05/30 01:09:26;;;;;;;7.32;5.68;;;;;;;17.92;63.80;100806.22;5049566;28;20033;-70
2021/05/30 01:11:55;;;;;;;6.35;5.75;;;;;;;17.77;64.50;100802.88;5049485;28;20041;-70
2021/05/30 01:14:23;;;;;;;9.40;6.90;;;;;;;17.62;65.34;100806.56;5048826;28;20036;-70
2021/05/30 01:16:50;;;;;;;6.65;5.95;;;;;;;17.61;65.05;100807.53;5048732;28;20052;-68
2021/05/30 01:19:20;;;;;;;9.68;5.65;;;;;;;17.34;66.21;100812.09;5048385;28;20576;-69
2021/05/30 01:21:47;;;;;;;9.00;5.22;;;;;;;17.40;66.10;100819.56;5048214;28;20048;-68
2021/05/30 01:24:15;;;;;;;6.20;5.63;;;;;;;17.47;66.84;100805.88;5048615;28;20102;-67
2021/05/30 01:26:43;;;;;;;6.10;5.50;;;;;;;17.54;66.46;100806.28;5030542;28;20127;-69
2021/05/30 01:29:10;;;;;;;7.00;6.30;;;;;;;17.66;66.42;100802.78;5048567;28;20060;-70
2021/05/30 01:31:37;;;;;;;6.72;6.00;;;;;;;17.71;66.10;100811.19;5048237;28;20553;-70
2021/05/30 01:34:04;;;;;;;7.18;5.63;;;;;;;17.51;67.03;100803.84;5037637;28;20049;-70
2021/05/30 01:36:31;;;;;;;5.55;5.05;;;;;;;17.34;68.06;100802.41;5047835;28;21076;-71
2021/05/30 01:38:58;;;;;;;5.95;5.30;;;;;;;17.75;66.34;100807.44;5048235;28;20569;-70
2021/05/30 01:41:25;;;;;;;8.02;5.70;;;;;;;17.78;66.18;100816.91;5048097;28;20227;-70
2021/05/30 01:43:52;;;;;;;6.80;6.20;;;;;;;17.79;66.49;100819.47;5048098;28;20057;-70
2021/05/30 01:46:19;;;;;;;5.05;4.65;;;;;;;17.75;66.92;100823.25;5047877;28;20044;-70
2021/05/30 01:48:46;;;;;;;5.20;4.78;;;;;;;17.60;67.78;100818.19;5048069;28;20102;-69
2021/05/30 01:51:14;;;;;;;5.55;4.85;;;;;;;17.67;67.70;100820.28;5047942;28;20039;-69
2021/05/30 01:54:00;;;;;;;4.82;4.43;;;;;;;17.65;68.34;100816.91;5047471;28;20045;-70
2021/05/30 01:59:16;;;;;;;4.65;4.25;;;;;;;17.61;68.25;100817.22;5045259;28;20034;-67
2021/05/30 02:01:43;;;;;;;10.77;5.00;;;;;;;17.59;68.86;100812.06;5047613;28;20123;-66
2021/05/30 02:04:13;;;;;;;5.53;4.20;;;;;;;17.65;68.09;100811.63;5048522;28;20043;-68
2021/05/30 02:06:43;;;;;;;4.43;4.03;;;;;;;17.65;68.40;100810.81;5048127;28;20049;-71
2021/05/30 02:09:10;;;;;;;5.28;3.70;;;;;;;17.61;68.00;100804.88;5048073;28;20123;-69
2021/05/30 02:11:38;;;;;;;8.40;4.53;;;;;;;17.62;68.55;100817.13;5048261;28;20124;-69
2021/05/30 02:14:06;;;;;;;5.30;4.80;;;;;;;17.66;68.11;100812.47;5047365;28;20037;-71
2021/05/30 02:16:36;;;;;;;7.65;5.75;;;;;;;17.64;69.02;100812.59;5047321;28;20045;-71
2021/05/30 02:19:04;;;;;;;6.20;5.68;;;;;;;17.63;68.57;100813.56;5047860;28;20033;-71
2021/05/30 02:21:59;;;;;;;8.13;7.40;;;;;;;17.55;68.64;100813.25;5047616;28;20518;-71
2021/05/30 02:24:25;;;;;;;7.32;6.68;;;;;;;17.58;68.56;100809.53;5044886;28;20144;-69
2021/05/30 02:26:52;;;;;;;8.88;7.07;;;;;;;17.59;69.07;100813.88;5047284;28;20127;-72
2021/05/30 02:29:40;;;;;;;6.97;6.28;;;;;;;17.62;68.17;100816.28;5046757;28;20502;-71
2021/05/30 02:32:09;;;;;;;8.00;6.75;;;;;;;17.62;68.13;100822.38;5047578;28;20495;-71
2021/05/30 02:34:38;;;;;;;6.88;6.25;;;;;;;17.62;68.92;100824.19;5046798;28;20037;-71
2021/05/30 02:37:05;;;;;;;8.00;6.13;;;;;;;17.63;68.90;100828.50;5047938;28;20054;-72
2021/05/30 02:39:32;;;;;;;6.68;5.97;;;;;;;17.64;68.98;100827.56;5047928;28;20667;-71
2021/05/30 02:41:59;;;;;;;4.78;4.38;;;;;;;17.55;69.26;100836.97;5047335;28;20052;-72
2021/05/30 02:44:26;;;;;;;5.90;5.40;;;;;;;17.67;69.01;100832.63;5047005;28;20555;-72
2021/05/30 02:46:53;;;;;;;5.07;4.57;;;;;;;17.65;69.01;100832.72;5046643;28;20133;-72
2021/05/30 02:49:20;;;;;;;6.30;4.90;;;;;;;17.59;69.35;100838.44;5046789;28;20403;-71
2021/05/30 02:51:49;;;;;;;5.95;3.35;;;;;;;17.59;69.41;100832.31;5028610;28;20492;-71
2021/05/30 02:54:15;;;;;;;6.43;3.63;;;;;;;17.67;69.27;100836.09;5046927;28;20083;-71
2021/05/30 02:56:43;;;;;;;5.05;3.50;;;;;;;17.67;69.09;100835.25;5045609;28;20047;-71
2021/05/30 02:59:10;;;;;;;9.35;4.38;;;;;;;17.71;69.04;100832.28;5046749;28;20106;-71
2021/05/30 03:01:37;;;;;;;5.05;3.83;;;;;;;17.68;69.32;100836.94;5046155;28;20614;-71
2021/05/30 03:04:04;;;;;;;5.50;3.78;;;;;;;17.57;69.79;100840.31;5046290;28;20076;-70
2021/05/30 03:06:32;;;;;;;5.38;3.70;;;;;;;17.46;70.96;100840.22;5045993;28;20071;-71
2021/05/30 03:08:59;;;;;;;4.15;3.75;;;;;;;17.40;71.34;100844.13;5046305;28;20065;-71
2021/05/30 03:11:28;;;;;;;5.90;3.75;;;;;;;17.36;71.39;100847.06;5046569;28;20041;-72
2021/05/30 03:13:55;;;;;;;4.85;4.18;;;;;;;17.34;70.95;100844.56;5045219;28;20373;-71
2021/05/30 03:16:22;;;;;;;8.98;4.32;;;;;;;17.32;71.04;100843.84;5044712;28;20076;-72
2021/05/30 03:18:49;;;;;;;8.02;4.47;;;;;;;17.38;70.77;100846.03;5045427;28;20569;-71
2021/05/30 03:21:17;;;;;;;4.40;3.90;;;;;;;17.37;70.74;100846.16;5045944;28;20509;-71
2021/05/30 03:23:44;;;;;;;7.00;4.32;;;;;;;17.42;70.64;100841.41;5045650;28;20045;-71
2021/05/30 03:26:11;;;;;;;4.25;3.85;;;;;;;17.28;71.42;100844.97;5046022;28;20045;-71
2021/05/30 03:28:38;;;;;;;4.65;3.60;;;;;;;17.28;71.52;100837.91;5045822;28;20116;-72
2021/05/30 03:31:05;;;;;;;5.53;3.53;;;;;;;17.34;71.25;100838.44;5046117;28;20126;-71
2021/05/30 03:33:33;;;;;;;7.50;3.47;;;;;;;17.36;70.94;100836.53;5046974;28;20080;-72
2021/05/30 03:36:03;;;;;;;6.45;3.85;;;;;;;17.36;70.64;100834.75;5047393;28;20123;-71
2021/05/30 03:38:31;;;;;;;7.15;4.13;;;;;;;17.33;70.88;100831.50;5046913;28;20120;-72
2021/05/30 03:41:06;;;;;;;5.57;3.80;;;;;;;17.33;70.87;100836.75;5045845;28;20049;-72
2021/05/30 03:43:34;;;;;;;4.45;4.03;;;;;;;17.27;71.09;100833.59;5046399;28;20048;-71
2021/05/30 03:46:02;;;;;;;8.27;4.68;;;;;;;17.27;71.04;100840.66;5046682;28;20029;-72
2021/05/30 03:48:29;;;;;;;6.30;4.15;;;;;;;17.40;69.92;100838.03;5045981;28;20041;-72
2021/05/30 03:50:57;;;;;;;10.18;4.90;;;;;;;17.35;69.77;100832.22;5045869;28;20095;-72
2021/05/30 03:53:24;;;;;;;6.05;4.97;;;;;;;17.28;70.30;100840.56;5046047;28;20500;-71
2021/05/30 03:55:51;;;;;;;9.00;5.30;;;;;;;17.38;69.51;100834.66;5045769;28;20087;-70
2021/05/30 03:58:20;;;;;;;5.97;5.03;;;;;;;17.30;69.95;100840.44;5046316;28;20381;-71
2021/05/30 04:00:47;;;;;;;10.45;5.45;;;;;;;17.22;70.34;100840.97;5044686;28;20067;-71
2021/05/30 04:03:14;;;;;;;7.35;4.97;;;;;;;17.21;69.88;100844.56;5045848;28;20053;-70
2021/05/30 04:05:40;;;;;;;7.00;5.70;;;;;;;17.21;69.75;100844.56;5045605;28;20051;-70
2021/05/30 04:08:07;;;;;;;6.22;5.63;;;;;;;17.30;69.51;100850.97;5046048;28;20119;-71
2021/05/30 04:10:34;;;;;;;5.97;5.38;;;;;;;17.26;70.47;100841.63;5045350;28;20041;-71
2021/05/30 04:13:01;;;;;;;6.90;5.00;;;;;;;17.39;69.79;100841.63;5045626;28;20073;-70
2021/05/30 04:15:28;;;;;;;9.68;6.35;;;;;;;17.33;70.22;100837.59;5045613;28;20045;-70
2021/05/30 04:17:55;;;;;;;9.43;6.18;;;;;;;17.37;70.44;100839.09;5045883;28;20072;-70
2021/05/30 04:20:22;;;;;;;6.13;5.35;;;;;;;17.43;70.30;100843.09;5045358;28;20040;-70
2021/05/30 04:22:49;;;;;;;10.32;5.80;;;;;;;17.34;71.32;100843.72;5045618;28;20072;-70
2021/05/30 04:25:16;;;;;;;6.93;6.22;;;;;;;17.39;70.49;100839.81;5045799;28;20040;-70
2021/05/30 04:27:46;;;;;;;8.30;5.90;;;;;;;17.45;70.90;100838.53;5045770;28;20128;-69
2021/05/30 04:30:15;;;;;;;6.18;5.15;;;;;;;17.54;69.89;100838.75;5047127;28;20110;-70
2021/05/30 04:32:42;;;;;;;6.63;5.88;;;;;;;17.60;70.08;100839.28;5048972;28;20045;-70
2021/05/30 04:35:11;;;;;;;6.72;5.70;;;;;;;17.62;69.45;100838.22;5050697;28;20103;-70
2021/05/30 04:37:38;;;;;;;9.23;5.35;;;;;;;17.64;69.52;100838.97;5051958;28;20376;-70
2021/05/30 04:40:07;;;;;;;9.23;5.68;;;;;;;17.68;69.13;100842.19;5049365;28;20105;-70
2021/05/30 04:42:35;;;;;;;6.63;5.03;;;;;;;17.57;69.65;100842.97;5048678;28;20159;-70
2021/05/30 04:45:03;;;;;;;8.93;5.65;;;;;;;17.74;69.13;100832.13;5049476;28;20064;-70
2021/05/30 04:47:30;;;;;;;7.45;5.20;;;;;;;17.71;69.46;100839.38;5049167;28;20075;-70
2021/05/30 04:49:57;;;;;;;8.55;6.28;;;;;;;17.79;69.85;100845.84;5050068;28;20186;-69
2021/05/30 04:52:24;;;;;;;5.13;4.50;;;;;;;17.79;69.69;100850.25;5050097;28;20037;-70
2021/05/30 04:54:51;;;;;;;4.85;4.45;;;;;;;17.81;69.67;100853.63;5048848;28;20041;-70
2021/05/30 04:57:18;;;;;;;6.32;4.50;;;;;;;17.99;68.82;100857.59;5048706;28;20510;-70
2021/05/30 04:59:45;;;;;;;7.38;4.20;;;;;;;18.39;68.20;100851.25;5048718;28;20072;-70
2021/05/30 05:02:12;;;;;;;9.35;5.43;;;;;;;18.35;68.91;100852.41;5047573;28;20041;-70
2021/05/30 05:04:39;;;;;;;5.95;5.38;;;;;;;18.57;67.90;100861.28;5048305;28;20061;-71
2021/05/30 05:07:05;;;;;;;10.38;6.05;;;;;;;18.82;67.79;100865.63;5048812;28;20032;-71
2021/05/30 05:09:32;;;;;;;11.48;5.10;;;;;;;18.98;66.44;100864.47;5048703;28;20072;-72
2021/05/30 05:11:59;;;;;;;6.88;5.40;;;;;;;19.33;66.39;100861.78;5047464;28;20079;-70
2021/05/30 05:14:26;;;;;;;8.18;5.00;;;;;;;19.27;65.62;100868.38;5046900;28;20045;-74
2021/05/30 05:16:53;;;;;;;6.47;5.72;;;;;;;19.57;65.04;100866.97;5048761;28;20563;-76
2021/05/30 05:19:20;;;;;;;6.78;6.07;;;;;;;19.66;64.27;100868.94;5048371;28;20124;-76
2021/05/30 05:21:47;;;;;;;10.18;5.93;;;;;;;19.44;64.26;100877.69;5048599;28;20072;-76
2021/05/30 05:24:14;;;;;;;6.15;5.43;;;;;;;19.46;65.38;100877.56;5048400;28;20483;-76
2021/05/30 05:26:41;;;;;;;6.38;5.60;;;;;;;19.69;64.43;100881.91;5049037;28;20127;-76
2021/05/30 05:29:08;;;;;;;8.57;5.30;;;;;;;19.92;64.12;100868.69;5049568;28;20059;-76
2021/05/30 05:31:35;;;;;;;6.93;5.80;;;;;;;19.87;64.24;100872.56;5048576;28;20110;-76
2021/05/30 05:34:02;;;;;;;7.25;6.18;;;;;;;20.06;62.39;100871.91;5054763;28;20045;-75
2021/05/30 05:36:29;;;;;;;9.15;7.80;;;;;;;19.93;62.29;100867.75;5054098;28;20119;-75
2021/05/30 05:38:55;;;;;;;14.25;8.27;;;;;;;19.96;63.63;100870.13;5054538;28;20069;-75
2021/05/30 05:41:22;;;;;;;11.52;9.60;;;;;;;19.81;63.05;100880.94;5049500;28;20043;-73
2021/05/30 05:43:49;;;;;;;12.55;7.40;;;;;;;20.27;60.20;100869.34;5054782;28;20037;-73
2021/05/30 05:46:16;;;;;;;9.95;7.03;;;;;;;20.87;59.04;100872.44;5053521;28;20460;-73
2021/05/30 05:48:43;;;;;;;8.63;7.35;;;;;;;20.75;57.44;100870.81;5054098;28;20451;-73
2021/05/30 05:51:10;;;;;;;9.75;7.28;;;;;;;21.09;56.32;100869.69;5053987;28;20075;-72
2021/05/30 05:53:40;;;;;;;7.10;6.32;;;;;;;21.24;56.58;100872.81;5054389;28;20037;-72
2021/05/30 05:56:07;;;;;;;12.43;7.63;;;;;;;21.36;55.92;100861.22;5053934;28;20376;-70
2021/05/30 05:58:34;;;;;;;7.95;6.40;;;;;;;21.00;57.00;100866.97;5054029;28;20136;-69
2021/05/30 06:01:01;;;;;;;12.63;7.53;;;;;;;21.06;57.10;100869.09;5053458;28;20065;-71
2021/05/30 06:03:29;;;;;;;19.75;12.00;;;;;;;20.60;57.96;100870.25;5053589;28;20091;-71
2021/05/30 06:05:56;;;;;;;12.50;11.38;;;;;;;21.15;56.90;100863.84;5053685;28;20071;-70
2021/05/30 06:08:23;;;;;;;13.82;10.80;;;;;;;21.80;55.46;100861.00;5052441;28;20055;-65
2021/05/30 06:10:50;;;;;;;13.00;11.40;;;;;;;22.18;53.79;100862.94;5053171;28;20059;-70
2021/05/30 06:13:16;;;;;;;12.82;11.18;;;;;;;21.81;54.71;100868.81;5053220;28;20067;-74
2021/05/30 06:15:46;;;;;;;12.57;11.38;;;;;;;22.13;54.04;100866.00;5053588;28;20557;-71
2021/05/30 06:18:14;;;;;;;10.85;8.93;;;;;;;22.13;54.54;100863.38;5053057;28;20082;-75
2021/05/30 06:20:44;;;;;;;16.77;15.15;;;;;;;21.62;54.03;100869.56;5053817;28;20064;-72
2021/05/30 06:23:11;;;;;;;15.18;12.07;;;;;;;22.00;54.24;100869.84;5049541;28;20092;-71
2021/05/30 06:25:40;;;;;;;17.75;12.45;;;;;;;22.58;52.03;100867.31;5052883;28;20127;-74
2021/05/30 06:28:07;;;;;;;10.00;8.95;;;;;;;22.80;53.04;100877.72;5052972;28;20128;-72
2021/05/30 06:30:40;;;;;;;10.85;8.18;;;;;;;23.09;49.94;100876.88;5052640;28;20064;-71
2021/05/30 06:33:09;;;;;;;7.40;6.60;;;;;;;23.19;51.22;100875.03;5052134;28;20136;-76
2021/05/30 06:35:39;;;;;;;13.10;6.22;;;;;;;23.51;50.97;100872.00;5052402;28;20131;-75
2021/05/30 06:38:07;;;;;;;6.30;4.70;;;;;;;24.21;49.40;100870.56;5053494;28;20094;-76
2021/05/30 06:40:34;;;;;;;6.43;4.88;;;;;;;23.92;48.33;100870.75;5050946;28;20131;-75
2021/05/30 06:43:02;;;;;;;7.30;4.97;;;;;;;23.83;49.90;100866.31;5053597;28;20049;-74
2021/05/30 06:45:29;;;;;;;7.35;5.03;;;;;;;23.38;50.26;100874.97;5053102;28;20045;-73
2021/05/30 06:47:58;;;;;;;10.00;6.25;;;;;;;24.43;47.70;100866.66;5052515;28;20128;-76
2021/05/30 06:50:25;;;;;;;9.48;5.85;;;;;;;24.98;46.61;100862.97;5053043;28;20061;-76
2021/05/30 06:52:52;;;;;;;11.55;5.20;;;;;;;25.55;44.12;100872.22;5052486;28;20118;-80
2021/05/30 06:55:21;;;;;;;8.45;4.95;;;;;;;25.07;46.01;100872.75;5052240;28;20033;-81
2021/05/30 06:57:48;;;;;;;5.25;4.63;;;;;;;24.98;44.91;100871.84;5052249;28;20557;-72
2021/05/30 07:00:15;;;;;;;8.10;4.35;;;;;;;25.84;44.82;100871.09;5051825;28;20060;-80
2021/05/30 07:02:43;;;;;;;7.88;5.40;;;;;;;25.74;43.18;100865.00;5056040;28;20062;-80
2021/05/30 07:05:11;;;;;;;8.60;4.85;;;;;;;26.26;41.73;100860.38;5056698;28;20071;-80
2021/05/30 07:07:39;;;;;;;5.05;4.00;;;;;;;26.00;43.11;100863.13;5052319;28;20135;-81
2021/05/30 07:10:08;;;;;;;6.53;4.25;;;;;;;26.33;41.76;100861.38;5052278;28;20045;-78
2021/05/30 07:12:34;;;;;;;12.20;4.75;;;;;;;26.85;40.47;100866.47;5052807;28;20124;-80
2021/05/30 07:15:02;;;;;;;6.38;4.20;;;;;;;26.59;41.36;100866.63;5052953;28;20140;-80
2021/05/30 07:17:29;;;;;;;5.63;2.92;;;;;;;26.45;41.16;100867.28;5052091;28;20491;-79
2021/05/30 07:19:57;;;;;;;6.40;3.58;;;;;;;26.88;40.63;100871.47;5052778;28;20064;-74
2021/05/30 07:22:29;;;;;;;6.07;3.65;;;;;;;26.99;41.05;100875.66;5052458;28;20124;-79
2021/05/30 07:24:55;;;;;;;8.88;4.80;;;;;;;26.77;40.91;100877.16;5052026;28;20136;-79
2021/05/30 07:27:22;;;;;;;3.90;2.53;;;;;;;26.33;40.84;100873.91;5031337;28;20076;-69
2021/05/30 07:29:49;;;;;;;3.28;2.33;;;;;;;27.10;38.74;100880.69;5051856;28;20049;-71
2021/05/30 07:32:16;;;;;;;3.03;2.63;;;;;;;28.02;37.15;100870.44;5051315;28;21239;-71
2021/05/30 07:34:43;;;;;;;6.25;2.38;;;;;;;28.21;37.98;100866.44;5051278;28;20072;-73
2021/05/30 07:37:10;;;;;;;4.95;2.15;;;;;;;28.14;37.32;100863.66;5051324;28;20064;-73
2021/05/30 07:39:37;;;;;;;6.00;2.65;;;;;;;27.68;36.84;100868.84;5050310;28;20029;-70
2021/05/30 07:42:04;;;;;;;4.47;2.47;;;;;;;27.66;38.21;100870.03;5050813;28;20474;-77
2021/05/30 07:44:31;;;;;;;3.65;2.30;;;;;;;28.11;37.60;100858.63;5051729;28;20388;-75
2021/05/30 07:47:04;;;;;;;3.67;2.33;;;;;;;29.03;36.07;100855.16;5051254;28;20051;-73
2021/05/30 07:49:31;;;;;;;5.97;2.20;;;;;;;28.65;35.92;100855.94;5033917;28;20067;-81
2021/05/30 07:51:59;;;;;;;2.67;1.80;;;;;;;27.99;34.55;100859.22;5051492;28;20045;-73
2021/05/30 07:54:35;;;;;;;2.05;1.63;;;;;;;29.00;33.80;100853.69;5050497;28;20504;-73
2021/05/30 07:57:06;;;;;;;4.22;1.83;;;;;;;28.63;33.28;100851.78;5050829;28;20041;-73
2021/05/30 07:59:33;;;;;;;2.83;2.00;;;;;;;28.15;34.14;100848.41;5050792;28;20123;-70
2021/05/30 08:02:00;;;;;;;3.28;1.92;;;;;;;28.47;33.72;100851.91;5050091;28;20108;-70
2021/05/30 08:04:28;;;;;;;3.75;1.98;;;;;;;28.53;33.63;100845.84;5049315;28;20037;-71
2021/05/30 08:06:55;;;;;;;4.72;1.85;;;;;;;28.45;32.95;100844.06;5054077;28;20455;-74
2021/05/30 08:09:22;;;;;;;4.78;2.65;;;;;;;28.27;32.94;100851.50;5054397;28;20033;-72
2021/05/30 08:11:49;;;;;;;5.13;2.25;;;;;;;27.86;33.31;100843.72;5053136;28;20040;-72
2021/05/30 08:14:16;;;;;;;4.07;1.95;;;;;;;28.33;32.94;100846.28;5051266;28;20045;-76
2021/05/30 08:16:43;;;;;;;1.80;1.65;;;;;;;28.43;33.11;100843.38;5052296;28;20033;-77
2021/05/30 08:19:12;;;;;;;2.97;2.13;;;;;;;28.19;33.25;100845.19;5053455;28;20187;-77
2021/05/30 08:21:43;;;;;;;2.15;1.70;;;;;;;28.43;32.73;100848.75;5053443;28;20142;-77
2021/05/30 08:24:11;;;;;;;5.38;2.22;;;;;;;28.09;31.54;100859.81;5052630;28;20041;-73
2021/05/30 08:26:50;;;;;;;2.20;1.90;;;;;;;27.56;32.26;100854.16;5052703;28;20526;-74
2021/05/30 08:29:18;;;;;;;2.70;1.95;;;;;;;27.55;32.47;100855.19;5053165;28;20029;-74
2021/05/30 08:31:48;;;;;;;2.60;1.75;;;;;;;27.81;32.51;100852.25;5053905;28;20119;-70
2021/05/30 08:34:16;;;;;;;2.75;2.03;;;;;;;27.83;32.61;100852.09;5050384;28;20044;-73
2021/05/30 08:36:43;;;;;;;9.00;2.20;;;;;;;27.88;31.21;100858.59;5035970;28;20043;-72
2021/05/30 08:39:11;;;;;;;3.28;2.10;;;;;;;28.03;31.90;100850.66;5053007;28;20068;-73
2021/05/30 08:41:40;;;;;;;6.53;2.03;;;;;;;28.14;30.80;100849.41;5053760;28;20118;-72
2021/05/30 08:44:09;;;;;;;6.78;2.28;;;;;;;27.84;31.29;100859.09;5053265;28;20127;-69
2021/05/30 08:46:36;;;;;;;4.95;1.80;;;;;;;27.37;32.68;100854.53;5053519;28;20077;-71
2021/05/30 08:49:05;;;;;;;2.28;1.88;;;;;;;26.81;34.05;100854.44;5053556;28;20041;-73
2021/05/30 08:51:37;;;;;;;6.00;1.98;;;;;;;26.97;33.95;100855.44;5053853;28;20037;-73
2021/05/30 08:54:13;;;;;;;3.78;1.90;;;;;;;26.51;33.67;100858.59;5053440;28;20120;-74
2021/05/30 08:56:42;;;;;;;3.83;2.08;;;;;;;26.51;34.45;100849.72;5053353;28;20044;-74
2021/05/30 08:59:27;;;;;;;7.38;2.35;;;;;;;25.84;35.20;100855.06;5051551;28;20094;-74
2021/05/30 09:02:09;;;;;;;6.93;2.25;;;;;;;25.91;34.95;100849.91;5053916;28;20431;-72
2021/05/30 09:04:39;;;;;;;2.25;1.98;;;;;;;26.12;35.24;100836.94;5053192;28;20044;-73
2021/05/30 09:07:08;;;;;;;4.72;2.17;;;;;;;26.34;35.01;100840.81;5052060;28;20049;-73
2021/05/30 09:09:40;;;;;;;5.30;2.20;;;;;;;26.08;34.45;100841.75;5035145;28;20068;-74
2021/05/30 09:12:34;;;;;;;5.28;2.20;;;;;;;25.67;35.15;100842.59;5052659;28;20048;-73
2021/05/30 09:15:04;;;;;;;4.03;2.63;;;;;;;25.76;34.96;100841.66;5051326;28;20064;-72
2021/05/30 09:17:32;;;;;;;3.17;2.25;;;;;;;25.70;35.50;100837.78;5047503;28;20079;-71
2021/05/30 09:20:00;;;;;;;5.55;2.25;;;;;;;25.14;36.18;100835.63;5045323;28;20041;-74
2021/05/30 09:22:32;;;;;;;8.00;2.55;;;;;;;25.19;37.85;100843.97;5044757;28;20071;-72
2021/05/30 09:25:28;;;;;;;3.40;2.40;;;;;;;24.95;37.75;100834.81;5052257;28;20534;-72
2021/05/30 09:28:01;;;;;;;2.33;2.13;;;;;;;25.06;35.60;100849.75;5031359;28;20128;-73
2021/05/30 09:30:42;;;;;;;3.25;2.22;;;;;;;24.67;36.13;100838.59;5052264;28;20170;-72
2021/05/30 09:33:14;;;;;;;4.35;2.70;;;;;;;24.82;36.80;100847.69;5052305;28;20120;-73
2021/05/30 09:35:41;;;;;;;3.47;2.65;;;;;;;24.79;35.84;100834.69;5051124;28;20067;-72
2021/05/30 09:38:14;;;;;;;5.45;2.53;;;;;;;24.90;35.81;100839.75;5052932;28;20454;-72
2021/05/30 09:40:43;;;;;;;5.30;2.33;;;;;;;24.49;35.28;100827.91;5051294;28;20430;-72
2021/05/30 09:43:16;;;;;;;3.53;2.00;;;;;;;24.19;35.03;100837.09;5052915;28;20049;-72
2021/05/30 09:45:55;;;;;;;4.10;2.47;;;;;;;24.03;35.36;100838.59;5051732;28;20583;-72
2021/05/30 09:48:22;;;;;;;4.10;2.95;;;;;;;24.35;35.86;100834.63;5052402;28;20083;-72
2021/05/30 09:51:05;;;;;;;5.22;2.08;;;;;;;24.11;35.22;100832.50;5053021;28;20642;-72
2021/05/30 09:53:39;;;;;;;2.15;1.75;;;;;;;23.69;33.88;100835.66;5052532;28;20698;-72
2021/05/30 09:56:34;;;;;;;3.20;2.00;;;;;;;23.85;35.27;100826.22;5051400;28;20041;-72
2021/05/30 09:59:03;;;;;;;;;;;;;;;23.63;35.36;100822.13;5052305;28;20040;-69
2021/05/30 10:02:08;;;;;;;2.03;1.92;;;;;;;23.32;36.10;100829.50;5052544;28;19929;-68
2021/05/30 10:04:36;;;;;;;7.43;2.83;;;;;;;23.14;36.61;100829.41;5051981;28;20041;-68
2021/05/30 10:07:05;;;;;;;1.95;1.75;;;;;;;23.53;37.62;100830.94;5051799;28;20069;-72
2021/05/30 10:09:32;;;;;;;4.18;2.28;;;;;;;23.35;37.02;100822.06;5048254;28;20068;-74
2021/05/30 10:11:59;;;;;;;4.43;2.08;;;;;;;23.65;35.59;100805.03;5052119;28;20049;-74
2021/05/30 10:14:28;;;;;;;3.85;1.95;;;;;;;23.53;36.43;100812.31;5052015;28;20045;-74
2021/05/30 10:16:55;;;;;;;2.53;1.90;;;;;;;23.38;35.45;100813.78;5050947;28;20073;-74
2021/05/30 10:19:29;;;;;;;4.18;2.45;;;;;;;23.43;36.12;100806.19;5052272;28;20612;-72
2021/05/30 10:21:58;;;;;;;;;;;;;;;23.22;36.09;100808.22;5051913;28;20037;-72
2021/05/30 10:24:26;;;;;;;4.50;2.70;;;;;;;23.71;35.64;100798.28;5051846;28;20050;-71
2021/05/30 10:27:11;;;;;;;3.65;2.00;;;;;;;23.85;35.09;100805.75;5049830;28;20128;-80
2021/05/30 10:29:38;;;;;;;6.03;2.20;;;;;;;23.76;35.70;100807.50;5044822;28;20033;-79
2021/05/30 10:32:16;;;;;;;4.05;1.80;;;;;;;23.57;35.91;100810.22;5044939;28;20128;-77
2021/05/30 10:35:21;;;;;;;4.50;2.10;;;;;;;23.45;36.53;100808.72;5048201;28;20093;-76
2021/05/30 10:37:50;;;;;;;4.80;2.00;;;;;;;23.77;37.44;100803.00;5047751;28;20080;-71
2021/05/30 10:40:20;;;;;;;2.05;1.60;;;;;;;23.80;36.56;100800.03;5048727;28;20129;-70
2021/05/30 10:43:09;;;;;;;4.85;1.80;;;;;;;24.02;36.53;100798.78;5048427;28;20056;-71
2021/05/30 10:45:42;;;;;;;3.70;2.20;;;;;;;23.86;37.16;100799.44;5048714;28;20483;-73
2021/05/30 10:48:17;;;;;;;1.90;1.80;;;;;;;23.69;36.94;100800.25;5050395;28;20567;-71
2021/05/30 10:50:58;;;;;;;3.55;2.10;;;;;;;23.58;37.55;100792.41;5051015;28;20531;-75
2021/05/30 10:53:32;;;;;;;2.22;1.83;;;;;;;23.59;36.84;100796.75;5051901;28;20049;-73
2021/05/30 10:56:23;;;;;;;2.83;2.30;;;;;;;23.89;35.63;100785.00;5051581;28;20044;-75
2021/05/30 10:59:09;;;;;;;3.83;1.80;;;;;;;23.86;35.84;100787.94;5051368;28;20045;-79
2021/05/30 11:01:38;;;;;;;3.47;1.65;;;;;;;23.64;36.25;100787.38;5050712;28;20087;-77
2021/05/30 11:04:27;;;;;;;3.33;2.08;;;;;;;23.56;35.99;100781.94;5051564;28;20037;-74
2021/05/30 11:06:55;;;;;;;2.72;1.60;;;;;;;23.57;35.03;100785.44;5050339;28;20136;-75
2021/05/30 11:09:23;;;;;;;1.40;1.30;;;;;;;23.71;34.59;100785.81;5032764;28;20037;-73
2021/05/30 11:12:23;;;;;;;4.93;1.90;;;;;;;23.34;34.69;100780.50;5050267;28;20453;-73
2021/05/30 11:15:12;;;;;;;1.85;1.50;;;;;;;23.62;34.08;100773.34;5049602;28;20048;-74
2021/05/30 11:17:46;;;;;;;3.28;1.70;;;;;;;23.77;36.44;100771.06;5049933;28;20045;-69
2021/05/30 11:20:28;;;;;;;2.28;1.77;;;;;;;23.67;36.80;100787.09;5051442;28;20499;-71
2021/05/30 11:22:59;;;;;;;1.88;1.77;;;;;;;23.53;35.91;100764.44;5050934;28;20106;-72
2021/05/30 11:25:39;;;;;;;2.05;1.85;;;;;;;23.60;35.60;100759.38;5050762;28;20459;-73
2021/05/30 11:28:11;;;;;;;3.08;2.00;;;;;;;23.66;35.41;100764.13;5049104;28;20045;-73
2021/05/30 11:30:45;;;;;;;2.75;1.90;;;;;;;23.68;35.84;100761.31;5046564;28;20095;-75
2021/05/30 11:33:24;;;;;;;5.35;1.80;;;;;;;23.66;35.52;100753.47;5051007;28;20399;-75
2021/05/30 11:35:55;;;;;;;2.28;1.55;;;;;;;23.72;34.91;100752.03;5050861;28;20132;-74
2021/05/30 11:38:39;;;;;;;3.50;2.00;;;;;;;23.33;34.89;100757.53;5049103;28;20049;-75